aviador You're here:

KCDW Decoded Metar

CALDWELL in NJ, USA
Report Time2017-08-22 21:53:00
UTC Time2017-08-22 22:16:26
Flight Rules vfr VFR
WindVRB at 06 Gusting to 16 kt
Visibility9999 m
Phenomena:N/A
Clouds:N/A
Expected CloudBase > 4,000 ft AGL from Temp-Dew spread
CeilingNone
Temp32°C (ISA +17)
Dew Point22°C (55% RH)
Heat Index35.6°C
QNH1009 hPa
Density Alt2,680 ft
Elevation210 ft
Report Wrong Elevation
Raw Report
KCDW 222153Z VRB06G16KT 10SM CLR 32/22 A2979 RMK AO2 SLP089
T03170217=

Extra information for KCDW:More info

Metar Taf Metar & Taf Last 4 Metars F.Rules Stats Wind Profile Meteogram Temp Stats Airport Information Weather charts Add Link Nearby VenuesMetar ALERT Operation Metar Decoded Social comments

AIRNAV info for KCDW